sensor_id;sensor_type;location;lat;lon;timestamp;P1;durP1;ratioP1;P2;durP2;ratioP2
21743;SDS011;11034;48.556;9.342;2022-10-31T00:01:09;9.90;;;4.22;;
21743;SDS011;11034;48.556;9.342;2022-10-31T00:03:38;11.30;;;4.55;;
21743;SDS011;11034;48.556;9.342;2022-10-31T00:06:09;8.43;;;4.47;;
21743;SDS011;11034;48.556;9.342;2022-10-31T00:08:38;14.75;;;4.70;;
21743;SDS011;11034;48.556;9.342;2022-10-31T00:11:08;13.45;;;4.90;;
21743;SDS011;11034;48.556;9.342;2022-10-31T00:13:36;10.35;;;4.80;;
21743;SDS011;11034;48.556;9.342;2022-10-31T00:16:12;14.05;;;4.65;;
21743;SDS011;11034;48.556;9.342;2022-10-31T00:18:41;12.43;;;4.43;;
21743;SDS011;11034;48.556;9.342;2022-10-31T00:21:09;9.40;;;4.25;;
21743;SDS011;11034;48.556;9.342;2022-10-31T00:23:39;11.48;;;4.70;;
21743;SDS011;11034;48.556;9.342;2022-10-31T00:26:07;15.00;;;4.75;;
21743;SDS011;11034;48.556;9.342;2022-10-31T00:28:35;14.23;;;4.78;;
21743;SDS011;11034;48.556;9.342;2022-10-31T00:31:03;8.65;;;4.35;;
21743;SDS011;11034;48.556;9.342;2022-10-31T00:33:33;10.55;;;4.43;;
21743;SDS011;11034;48.556;9.342;2022-10-31T00:36:03;9.45;;;4.30;;
21743;SDS011;11034;48.556;9.342;2022-10-31T00:38:32;11.75;;;4.25;;
21743;SDS011;11034;48.556;9.342;2022-10-31T00:41:02;9.45;;;3.80;;
21743;SDS011;11034;48.556;9.342;2022-10-31T00:43:30;13.57;;;3.83;;
21743;SDS011;11034;48.556;9.342;2022-10-31T00:45:58;8.43;;;4.50;;
21743;SDS011;11034;48.556;9.342;2022-10-31T00:48:26;8.35;;;3.90;;
21743;SDS011;11034;48.556;9.342;2022-10-31T00:50:54;11.93;;;4.20;;
21743;SDS011;11034;48.556;9.342;2022-10-31T00:53:22;9.43;;;3.65;;
21743;SDS011;11034;48.556;9.342;2022-10-31T00:55:50;8.00;;;3.83;;
21743;SDS011;11034;48.556;9.342;2022-10-31T00:58:20;8.73;;;3.90;;
21743;SDS011;11034;48.556;9.342;2022-10-31T01:00:48;10.38;;;3.53;;
21743;SDS011;11034;48.556;9.342;2022-10-31T01:03:22;7.25;;;3.50;;
21743;SDS011;11034;48.556;9.342;2022-10-31T01:05:57;9.77;;;3.80;;
21743;SDS011;11034;48.556;9.342;2022-10-31T01:08:26;7.28;;;3.88;;
21743;SDS011;11034;48.556;9.342;2022-10-31T01:10:58;13.25;;;3.58;;
21743;SDS011;11034;48.556;9.342;2022-10-31T01:13:29;8.95;;;3.40;;
21743;SDS011;11034;48.556;9.342;2022-10-31T01:15:57;11.98;;;3.75;;
21743;SDS011;11034;48.556;9.342;2022-10-31T01:18:27;10.27;;;4.20;;
21743;SDS011;11034;48.556;9.342;2022-10-31T01:20:59;11.05;;;3.83;;
21743;SDS011;11034;48.556;9.342;2022-10-31T01:23:28;9.68;;;4.10;;
21743;SDS011;11034;48.556;9.342;2022-10-31T01:26:00;8.88;;;3.78;;
21743;SDS011;11034;48.556;9.342;2022-10-31T01:28:33;8.02;;;3.60;;
21743;SDS011;11034;48.556;9.342;2022-10-31T01:31:02;12.20;;;3.88;;
21743;SDS011;11034;48.556;9.342;2022-10-31T01:33:31;10.10;;;3.53;;
21743;SDS011;11034;48.556;9.342;2022-10-31T01:35:59;9.00;;;3.67;;
21743;SDS011;11034;48.556;9.342;2022-10-31T01:38:27;7.60;;;3.60;;
21743;SDS011;11034;48.556;9.342;2022-10-31T01:40:55;7.47;;;3.50;;
21743;SDS011;11034;48.556;9.342;2022-10-31T01:43:23;8.18;;;3.30;;
21743;SDS011;11034;48.556;9.342;2022-10-31T01:46:37;10.10;;;3.67;;
21743;SDS011;11034;48.556;9.342;2022-10-31T01:49:09;8.10;;;3.30;;
21743;SDS011;11034;48.556;9.342;2022-10-31T01:51:42;8.25;;;3.67;;
21743;SDS011;11034;48.556;9.342;2022-10-31T01:54:21;7.95;;;3.30;;
21743;SDS011;11034;48.556;9.342;2022-10-31T01:56:52;11.02;;;3.72;;
21743;SDS011;11034;48.556;9.342;2022-10-31T01:59:24;10.18;;;3.58;;
21743;SDS011;11034;48.556;9.342;2022-10-31T02:01:58;9.45;;;3.65;;
21743;SDS011;11034;48.556;9.342;2022-10-31T02:04:26;7.28;;;3.78;;
21743;SDS011;11034;48.556;9.342;2022-10-31T02:06:55;6.50;;;3.47;;
21743;SDS011;11034;48.556;9.342;2022-10-31T02:09:27;12.05;;;3.83;;
21743;SDS011;11034;48.556;9.342;2022-10-31T02:12:00;9.50;;;4.05;;
21743;SDS011;11034;48.556;9.342;2022-10-31T02:14:30;9.35;;;4.03;;
21743;SDS011;11034;48.556;9.342;2022-10-31T02:17:00;8.70;;;3.42;;
21743;SDS011;11034;48.556;9.342;2022-10-31T02:19:30;9.85;;;3.70;;
21743;SDS011;11034;48.556;9.342;2022-10-31T02:22:05;9.88;;;3.75;;
21743;SDS011;11034;48.556;9.342;2022-10-31T02:24:46;8.65;;;3.78;;
21743;SDS011;11034;48.556;9.342;2022-10-31T02:30:36;8.52;;;3.28;;
21743;SDS011;11034;48.556;9.342;2022-10-31T02:33:19;12.07;;;3.97;;
21743;SDS011;11034;48.556;9.342;2022-10-31T02:35:55;8.43;;;3.53;;
21743;SDS011;11034;48.556;9.342;2022-10-31T02:38:36;11.45;;;4.00;;
21743;SDS011;11034;48.556;9.342;2022-10-31T02:41:10;9.73;;;3.20;;
21743;SDS011;11034;48.556;9.342;2022-10-31T02:43:48;8.68;;;3.60;;
21743;SDS011;11034;48.556;9.342;2022-10-31T02:46:25;10.23;;;3.80;;
21743;SDS011;11034;48.556;9.342;2022-10-31T02:49:00;10.20;;;3.83;;
21743;SDS011;11034;48.556;9.342;2022-10-31T02:51:33;10.45;;;3.58;;
21743;SDS011;11034;48.556;9.342;2022-10-31T02:54:01;7.60;;;3.70;;
21743;SDS011;11034;48.556;9.342;2022-10-31T02:56:30;7.82;;;3.63;;
21743;SDS011;11034;48.556;9.342;2022-10-31T02:58:58;7.97;;;3.65;;
21743;SDS011;11034;48.556;9.342;2022-10-31T03:01:45;12.15;;;4.50;;
21743;SDS011;11034;48.556;9.342;2022-10-31T03:07:28;8.10;;;3.70;;
21743;SDS011;11034;48.556;9.342;2022-10-31T03:10:04;8.88;;;4.07;;
21743;SDS011;11034;48.556;9.342;2022-10-31T03:12:42;12.60;;;4.45;;
21743;SDS011;11034;48.556;9.342;2022-10-31T03:15:19;12.15;;;4.35;;
21743;SDS011;11034;48.556;9.342;2022-10-31T03:17:54;8.85;;;4.15;;
21743;SDS011;11034;48.556;9.342;2022-10-31T03:20:26;10.32;;;4.15;;
21743;SDS011;11034;48.556;9.342;2022-10-31T03:22:58;10.85;;;3.92;;
21743;SDS011;11034;48.556;9.342;2022-10-31T03:25:29;12.68;;;4.20;;
21743;SDS011;11034;48.556;9.342;2022-10-31T03:28:01;9.77;;;4.40;;
21743;SDS011;11034;48.556;9.342;2022-10-31T03:30:31;10.32;;;4.00;;
21743;SDS011;11034;48.556;9.342;2022-10-31T03:33:03;10.05;;;3.88;;
21743;SDS011;11034;48.556;9.342;2022-10-31T03:35:35;13.48;;;4.13;;
21743;SDS011;11034;48.556;9.342;2022-10-31T03:38:08;8.20;;;3.95;;
21743;SDS011;11034;48.556;9.342;2022-10-31T03:40:37;9.55;;;4.07;;
21743;SDS011;11034;48.556;9.342;2022-10-31T03:43:08;7.97;;;4.05;;
21743;SDS011;11034;48.556;9.342;2022-10-31T03:45:41;8.60;;;4.47;;
21743;SDS011;11034;48.556;9.342;2022-10-31T03:48:12;11.48;;;3.60;;
21743;SDS011;11034;48.556;9.342;2022-10-31T03:50:43;10.27;;;4.47;;
21743;SDS011;11034;48.556;9.342;2022-10-31T03:53:19;10.18;;;4.07;;
21743;SDS011;11034;48.556;9.342;2022-10-31T03:55:52;9.68;;;4.05;;
21743;SDS011;11034;48.556;9.342;2022-10-31T03:58:27;10.48;;;3.97;;
21743;SDS011;11034;48.556;9.342;2022-10-31T04:01:03;9.73;;;4.13;;
21743;SDS011;11034;48.556;9.342;2022-10-31T04:03:34;10.60;;;4.13;;
21743;SDS011;11034;48.556;9.342;2022-10-31T04:06:05;10.30;;;4.30;;
21743;SDS011;11034;48.556;9.342;2022-10-31T04:08:39;9.05;;;3.80;;
21743;SDS011;11034;48.556;9.342;2022-10-31T04:11:10;12.57;;;4.13;;
21743;SDS011;11034;48.556;9.342;2022-10-31T04:13:40;10.02;;;4.30;;
21743;SDS011;11034;48.556;9.342;2022-10-31T04:16:11;7.00;;;4.03;;
21743;SDS011;11034;48.556;9.342;2022-10-31T04:18:42;7.22;;;4.40;;
21743;SDS011;11034;48.556;9.342;2022-10-31T04:21:10;9.07;;;4.25;;
21743;SDS011;11034;48.556;9.342;2022-10-31T04:23:40;15.02;;;4.85;;
21743;SDS011;11034;48.556;9.342;2022-10-31T04:26:11;10.80;;;4.78;;
21743;SDS011;11034;48.556;9.342;2022-10-31T04:28:40;14.25;;;4.78;;
21743;SDS011;11034;48.556;9.342;2022-10-31T04:31:08;12.55;;;4.65;;
21743;SDS011;11034;48.556;9.342;2022-10-31T04:33:38;10.10;;;4.53;;
21743;SDS011;11034;48.556;9.342;2022-10-31T04:36:07;14.52;;;5.00;;
21743;SDS011;11034;48.556;9.342;2022-10-31T04:38:35;11.65;;;4.85;;
21743;SDS011;11034;48.556;9.342;2022-10-31T04:41:04;12.52;;;5.00;;
21743;SDS011;11034;48.556;9.342;2022-10-31T04:43:32;13.20;;;5.07;;
21743;SDS011;11034;48.556;9.342;2022-10-31T04:46:00;12.57;;;4.60;;
21743;SDS011;11034;48.556;9.342;2022-10-31T04:48:28;11.82;;;4.35;;
21743;SDS011;11034;48.556;9.342;2022-10-31T04:51:00;9.07;;;4.35;;
21743;SDS011;11034;48.556;9.342;2022-10-31T04:53:28;13.45;;;4.63;;
21743;SDS011;11034;48.556;9.342;2022-10-31T04:55:57;11.23;;;4.20;;
21743;SDS011;11034;48.556;9.342;2022-10-31T04:58:34;9.48;;;4.30;;
21743;SDS011;11034;48.556;9.342;2022-10-31T05:01:02;14.77;;;4.95;;
21743;SDS011;11034;48.556;9.342;2022-10-31T05:03:31;8.65;;;4.07;;
21743;SDS011;11034;48.556;9.342;2022-10-31T05:05:59;13.27;;;4.72;;
21743;SDS011;11034;48.556;9.342;2022-10-31T05:08:27;11.25;;;4.78;;
21743;SDS011;11034;48.556;9.342;2022-10-31T05:10:58;11.43;;;4.10;;
21743;SDS011;11034;48.556;9.342;2022-10-31T05:13:31;7.70;;;3.88;;
21743;SDS011;11034;48.556;9.342;2022-10-31T05:15:59;10.68;;;4.00;;
21743;SDS011;11034;48.556;9.342;2022-10-31T05:18:27;13.60;;;4.35;;
21743;SDS011;11034;48.556;9.342;2022-10-31T05:20:55;8.45;;;3.97;;
21743;SDS011;11034;48.556;9.342;2022-10-31T05:23:23;12.32;;;4.50;;
21743;SDS011;11034;48.556;9.342;2022-10-31T05:25:51;14.38;;;4.65;;
21743;SDS011;11034;48.556;9.342;2022-10-31T05:28:19;13.10;;;4.25;;
21743;SDS011;11034;48.556;9.342;2022-10-31T05:30:49;12.85;;;4.45;;
21743;SDS011;11034;48.556;9.342;2022-10-31T05:33:17;11.60;;;4.50;;
21743;SDS011;11034;48.556;9.342;2022-10-31T05:35:45;9.32;;;4.35;;
21743;SDS011;11034;48.556;9.342;2022-10-31T05:38:13;12.85;;;4.63;;
21743;SDS011;11034;48.556;9.342;2022-10-31T05:40:41;8.98;;;4.20;;
21743;SDS011;11034;48.556;9.342;2022-10-31T05:43:09;11.52;;;4.25;;
21743;SDS011;11034;48.556;9.342;2022-10-31T05:45:37;10.60;;;3.72;;
21743;SDS011;11034;48.556;9.342;2022-10-31T05:48:07;10.80;;;4.25;;
21743;SDS011;11034;48.556;9.342;2022-10-31T05:50:36;19.88;;;4.50;;
21743;SDS011;11034;48.556;9.342;2022-10-31T05:53:04;12.38;;;4.20;;
21743;SDS011;11034;48.556;9.342;2022-10-31T05:55:32;8.77;;;4.03;;
21743;SDS011;11034;48.556;9.342;2022-10-31T05:58:00;10.05;;;4.38;;
21743;SDS011;11034;48.556;9.342;2022-10-31T06:00:29;8.70;;;4.50;;
21743;SDS011;11034;48.556;9.342;2022-10-31T06:02:58;8.98;;;4.35;;
21743;SDS011;11034;48.556;9.342;2022-10-31T06:05:28;7.03;;;4.38;;
21743;SDS011;11034;48.556;9.342;2022-10-31T06:07:57;12.70;;;4.88;;
21743;SDS011;11034;48.556;9.342;2022-10-31T06:10:26;10.38;;;4.60;;
21743;SDS011;11034;48.556;9.342;2022-10-31T06:12:54;13.10;;;4.32;;
21743;SDS011;11034;48.556;9.342;2022-10-31T06:15:22;10.70;;;4.25;;
21743;SDS011;11034;48.556;9.342;2022-10-31T06:17:57;11.90;;;4.28;;
21743;SDS011;11034;48.556;9.342;2022-10-31T06:20:28;15.32;;;4.32;;
21743;SDS011;11034;48.556;9.342;2022-10-31T06:22:56;11.32;;;3.78;;
21743;SDS011;11034;48.556;9.342;2022-10-31T06:25:25;13.27;;;4.30;;
21743;SDS011;11034;48.556;9.342;2022-10-31T06:27:53;10.75;;;4.30;;
21743;SDS011;11034;48.556;9.342;2022-10-31T06:30:22;9.13;;;3.88;;
21743;SDS011;11034;48.556;9.342;2022-10-31T06:32:50;7.78;;;3.63;;
21743;SDS011;11034;48.556;9.342;2022-10-31T06:35:18;10.20;;;4.43;;
21743;SDS011;11034;48.556;9.342;2022-10-31T06:37:51;11.27;;;4.00;;
21743;SDS011;11034;48.556;9.342;2022-10-31T06:40:20;6.93;;;3.85;;
21743;SDS011;11034;48.556;9.342;2022-10-31T06:42:55;8.63;;;4.03;;
21743;SDS011;11034;48.556;9.342;2022-10-31T06:45:23;12.95;;;4.70;;
21743;SDS011;11034;48.556;9.342;2022-10-31T06:47:52;13.32;;;4.40;;
21743;SDS011;11034;48.556;9.342;2022-10-31T06:50:40;9.85;;;4.20;;
21743;SDS011;11034;48.556;9.342;2022-10-31T06:53:10;8.77;;;3.95;;
21743;SDS011;11034;48.556;9.342;2022-10-31T06:55:41;13.07;;;4.30;;
21743;SDS011;11034;48.556;9.342;2022-10-31T06:58:10;12.82;;;5.03;;
21743;SDS011;11034;48.556;9.342;2022-10-31T07:00:38;9.35;;;4.60;;
21743;SDS011;11034;48.556;9.342;2022-10-31T07:03:10;11.20;;;4.63;;
21743;SDS011;11034;48.556;9.342;2022-10-31T07:05:40;16.02;;;4.82;;
21743;SDS011;11034;48.556;9.342;2022-10-31T07:08:10;10.05;;;3.92;;
21743;SDS011;11034;48.556;9.342;2022-10-31T07:10:40;6.75;;;3.70;;
21743;SDS011;11034;48.556;9.342;2022-10-31T07:13:11;12.23;;;4.28;;
21743;SDS011;11034;48.556;9.342;2022-10-31T07:15:41;9.95;;;3.42;;
21743;SDS011;11034;48.556;9.342;2022-10-31T07:18:10;12.23;;;3.75;;
21743;SDS011;11034;48.556;9.342;2022-10-31T07:20:40;9.50;;;3.70;;
21743;SDS011;11034;48.556;9.342;2022-10-31T07:23:10;11.38;;;4.22;;
21743;SDS011;11034;48.556;9.342;2022-10-31T07:25:38;9.85;;;3.80;;
21743;SDS011;11034;48.556;9.342;2022-10-31T07:28:06;11.52;;;4.30;;
21743;SDS011;11034;48.556;9.342;2022-10-31T07:30:35;8.65;;;4.63;;
21743;SDS011;11034;48.556;9.342;2022-10-31T07:33:04;13.65;;;4.97;;
21743;SDS011;11034;48.556;9.342;2022-10-31T07:35:33;16.55;;;7.25;;
21743;SDS011;11034;48.556;9.342;2022-10-31T07:38:07;9.45;;;4.85;;
21743;SDS011;11034;48.556;9.342;2022-10-31T07:40:38;14.30;;;4.47;;
21743;SDS011;11034;48.556;9.342;2022-10-31T07:43:06;11.02;;;5.07;;
21743;SDS011;11034;48.556;9.342;2022-10-31T07:45:39;12.32;;;5.93;;
21743;SDS011;11034;48.556;9.342;2022-10-31T07:48:08;12.50;;;4.47;;
21743;SDS011;11034;48.556;9.342;2022-10-31T07:50:36;17.35;;;4.63;;
21743;SDS011;11034;48.556;9.342;2022-10-31T07:53:06;14.35;;;5.05;;
21743;SDS011;11034;48.556;9.342;2022-10-31T07:55:37;13.45;;;4.88;;
21743;SDS011;11034;48.556;9.342;2022-10-31T07:58:06;12.43;;;4.57;;
21743;SDS011;11034;48.556;9.342;2022-10-31T08:00:36;12.38;;;4.10;;
21743;SDS011;11034;48.556;9.342;2022-10-31T08:03:06;14.77;;;4.28;;
21743;SDS011;11034;48.556;9.342;2022-10-31T08:05:36;10.57;;;4.28;;
21743;SDS011;11034;48.556;9.342;2022-10-31T08:08:04;14.93;;;4.57;;
21743;SDS011;11034;48.556;9.342;2022-10-31T08:10:33;17.85;;;4.75;;
21743;SDS011;11034;48.556;9.342;2022-10-31T08:13:04;13.27;;;4.68;;
21743;SDS011;11034;48.556;9.342;2022-10-31T08:15:33;12.40;;;4.35;;
21743;SDS011;11034;48.556;9.342;2022-10-31T08:18:06;11.68;;;4.45;;
21743;SDS011;11034;48.556;9.342;2022-10-31T08:20:38;11.90;;;4.40;;
21743;SDS011;11034;48.556;9.342;2022-10-31T08:23:06;10.88;;;4.03;;
21743;SDS011;11034;48.556;9.342;2022-10-31T08:25:36;9.45;;;4.63;;
21743;SDS011;11034;48.556;9.342;2022-10-31T08:28:06;13.50;;;4.10;;
21743;SDS011;11034;48.556;9.342;2022-10-31T08:30:37;8.60;;;4.20;;
21743;SDS011;11034;48.556;9.342;2022-10-31T08:33:07;10.93;;;4.05;;
21743;SDS011;11034;48.556;9.342;2022-10-31T08:35:37;10.13;;;4.40;;
21743;SDS011;11034;48.556;9.342;2022-10-31T08:38:06;12.27;;;5.70;;
21743;SDS011;11034;48.556;9.342;2022-10-31T08:40:35;13.15;;;4.63;;
21743;SDS011;11034;48.556;9.342;2022-10-31T08:43:05;14.20;;;5.18;;
21743;SDS011;11034;48.556;9.342;2022-10-31T08:45:37;10.48;;;5.13;;
21743;SDS011;11034;48.556;9.342;2022-10-31T08:48:06;8.70;;;5.55;;
21743;SDS011;11034;48.556;9.342;2022-10-31T08:50:37;13.95;;;5.47;;
21743;SDS011;11034;48.556;9.342;2022-10-31T08:53:05;9.27;;;5.32;;
21743;SDS011;11034;48.556;9.342;2022-10-31T08:55:37;11.52;;;5.30;;
21743;SDS011;11034;48.556;9.342;2022-10-31T08:58:09;11.00;;;5.35;;
21743;SDS011;11034;48.556;9.342;2022-10-31T09:00:39;15.68;;;5.45;;
21743;SDS011;11034;48.556;9.342;2022-10-31T09:03:09;10.45;;;5.07;;
21743;SDS011;11034;48.556;9.342;2022-10-31T09:05:38;13.23;;;5.60;;
21743;SDS011;11034;48.556;9.342;2022-10-31T09:08:07;11.38;;;5.53;;
21743;SDS011;11034;48.556;9.342;2022-10-31T09:10:42;10.63;;;5.45;;
21743;SDS011;11034;48.556;9.342;2022-10-31T09:13:12;11.73;;;5.38;;
21743;SDS011;11034;48.556;9.342;2022-10-31T09:15:42;13.93;;;5.20;;
21743;SDS011;11034;48.556;9.342;2022-10-31T09:18:12;11.30;;;5.00;;
21743;SDS011;11034;48.556;9.342;2022-10-31T09:20:41;11.30;;;4.90;;
21743;SDS011;11034;48.556;9.342;2022-10-31T09:23:11;15.38;;;5.20;;
21743;SDS011;11034;48.556;9.342;2022-10-31T09:25:43;12.93;;;4.82;;
21743;SDS011;11034;48.556;9.342;2022-10-31T09:28:18;11.77;;;4.63;;
21743;SDS011;11034;48.556;9.342;2022-10-31T09:30:47;13.50;;;5.03;;
21743;SDS011;11034;48.556;9.342;2022-10-31T09:33:16;11.48;;;5.13;;
21743;SDS011;11034;48.556;9.342;2022-10-31T09:35:45;9.63;;;4.80;;
21743;SDS011;11034;48.556;9.342;2022-10-31T09:38:16;9.60;;;4.78;;
21743;SDS011;11034;48.556;9.342;2022-10-31T09:40:46;12.05;;;5.00;;
21743;SDS011;11034;48.556;9.342;2022-10-31T09:43:20;11.88;;;4.68;;
21743;SDS011;11034;48.556;9.342;2022-10-31T09:45:59;8.70;;;4.30;;
21743;SDS011;11034;48.556;9.342;2022-10-31T09:48:37;10.73;;;4.53;;
21743;SDS011;11034;48.556;9.342;2022-10-31T09:51:12;17.15;;;5.50;;
21743;SDS011;11034;48.556;9.342;2022-10-31T09:53:45;10.35;;;4.90;;
21743;SDS011;11034;48.556;9.342;2022-10-31T09:56:18;16.15;;;5.28;;
21743;SDS011;11034;48.556;9.342;2022-10-31T09:58:52;10.88;;;5.38;;
21743;SDS011;11034;48.556;9.342;2022-10-31T10:01:25;13.23;;;5.78;;
21743;SDS011;11034;48.556;9.342;2022-10-31T10:04:01;10.48;;;4.75;;
21743;SDS011;11034;48.556;9.342;2022-10-31T10:06:44;10.50;;;4.57;;
21743;SDS011;11034;48.556;9.342;2022-10-31T10:09:17;14.80;;;5.63;;
21743;SDS011;11034;48.556;9.342;2022-10-31T10:11:53;11.40;;;4.97;;
21743;SDS011;11034;48.556;9.342;2022-10-31T10:14:37;15.18;;;5.53;;
21743;SDS011;11034;48.556;9.342;2022-10-31T10:17:20;10.68;;;5.25;;
21743;SDS011;11034;48.556;9.342;2022-10-31T10:19:58;14.40;;;5.85;;
21743;SDS011;11034;48.556;9.342;2022-10-31T10:22:47;12.75;;;5.55;;
21743;SDS011;11034;48.556;9.342;2022-10-31T10:25:22;14.60;;;6.30;;
21743;SDS011;11034;48.556;9.342;2022-10-31T10:27:54;11.68;;;6.22;;
21743;SDS011;11034;48.556;9.342;2022-10-31T10:30:32;19.90;;;6.20;;
21743;SDS011;11034;48.556;9.342;2022-10-31T10:33:08;14.68;;;5.78;;
21743;SDS011;11034;48.556;9.342;2022-10-31T10:35:39;12.18;;;5.93;;
21743;SDS011;11034;48.556;9.342;2022-10-31T10:38:15;12.57;;;4.65;;
21743;SDS011;11034;48.556;9.342;2022-10-31T10:40:49;8.32;;;3.47;;
21743;SDS011;11034;48.556;9.342;2022-10-31T10:43:20;8.70;;;3.50;;
21743;SDS011;11034;48.556;9.342;2022-10-31T10:46:05;12.18;;;3.50;;
21743;SDS011;11034;48.556;9.342;2022-10-31T10:49:07;14.52;;;3.85;;
21743;SDS011;11034;48.556;9.342;2022-10-31T10:51:44;10.52;;;3.42;;
21743;SDS011;11034;48.556;9.342;2022-10-31T10:54:39;9.73;;;4.38;;
21743;SDS011;11034;48.556;9.342;2022-10-31T10:57:17;13.10;;;6.25;;
21743;SDS011;11034;48.556;9.342;2022-10-31T10:59:54;15.63;;;6.97;;
21743;SDS011;11034;48.556;9.342;2022-10-31T11:02:24;12.68;;;6.05;;
21743;SDS011;11034;48.556;9.342;2022-10-31T11:04:55;11.50;;;5.10;;
21743;SDS011;11034;48.556;9.342;2022-10-31T11:07:24;8.80;;;5.10;;
21743;SDS011;11034;48.556;9.342;2022-10-31T11:10:02;15.38;;;7.07;;
21743;SDS011;11034;48.556;9.342;2022-10-31T11:12:32;13.63;;;5.85;;
21743;SDS011;11034;48.556;9.342;2022-10-31T11:15:02;14.60;;;5.35;;
21743;SDS011;11034;48.556;9.342;2022-10-31T11:17:38;10.82;;;4.93;;
21743;SDS011;11034;48.556;9.342;2022-10-31T11:20:20;13.50;;;5.20;;
21743;SDS011;11034;48.556;9.342;2022-10-31T11:23:14;11.27;;;4.28;;
21743;SDS011;11034;48.556;9.342;2022-10-31T11:25:48;9.52;;;4.78;;
21743;SDS011;11034;48.556;9.342;2022-10-31T11:28:18;15.38;;;5.30;;
21743;SDS011;11034;48.556;9.342;2022-10-31T11:30:47;12.85;;;5.68;;
21743;SDS011;11034;48.556;9.342;2022-10-31T11:33:21;12.85;;;5.50;;
21743;SDS011;11034;48.556;9.342;2022-10-31T11:35:53;13.02;;;5.88;;
21743;SDS011;11034;48.556;9.342;2022-10-31T11:38:32;15.02;;;6.13;;
21743;SDS011;11034;48.556;9.342;2022-10-31T11:41:09;9.98;;;5.78;;
21743;SDS011;11034;48.556;9.342;2022-10-31T11:43:45;12.82;;;6.13;;
21743;SDS011;11034;48.556;9.342;2022-10-31T11:46:18;16.40;;;6.18;;
21743;SDS011;11034;48.556;9.342;2022-10-31T11:48:51;12.45;;;6.57;;
21743;SDS011;11034;48.556;9.342;2022-10-31T11:51:22;15.18;;;6.57;;
21743;SDS011;11034;48.556;9.342;2022-10-31T11:53:54;18.10;;;7.38;;
21743;SDS011;11034;48.556;9.342;2022-10-31T11:56:37;15.90;;;6.00;;
21743;SDS011;11034;48.556;9.342;2022-10-31T11:59:14;15.20;;;6.38;;
21743;SDS011;11034;48.556;9.342;2022-10-31T12:01:50;15.77;;;6.65;;
21743;SDS011;11034;48.556;9.342;2022-10-31T12:04:27;11.93;;;6.47;;
21743;SDS011;11034;48.556;9.342;2022-10-31T12:07:00;18.75;;;8.25;;
21743;SDS011;11034;48.556;9.342;2022-10-31T12:09:30;19.38;;;7.57;;
21743;SDS011;11034;48.556;9.342;2022-10-31T12:12:13;14.20;;;6.43;;
21743;SDS011;11034;48.556;9.342;2022-10-31T12:15:02;14.02;;;6.60;;
21743;SDS011;11034;48.556;9.342;2022-10-31T12:17:39;16.42;;;6.68;;
21743;SDS011;11034;48.556;9.342;2022-10-31T12:20:23;14.57;;;6.10;;
21743;SDS011;11034;48.556;9.342;2022-10-31T12:23:06;16.63;;;6.15;;
21743;SDS011;11034;48.556;9.342;2022-10-31T12:25:46;16.98;;;5.75;;
21743;SDS011;11034;48.556;9.342;2022-10-31T12:28:36;14.50;;;5.10;;
21743;SDS011;11034;48.556;9.342;2022-10-31T12:31:24;13.68;;;5.68;;
21743;SDS011;11034;48.556;9.342;2022-10-31T12:37:01;13.68;;;5.22;;
21743;SDS011;11034;48.556;9.342;2022-10-31T12:39:35;13.55;;;4.72;;
21743;SDS011;11034;48.556;9.342;2022-10-31T12:42:12;17.73;;;5.40;;
21743;SDS011;11034;48.556;9.342;2022-10-31T12:44:59;12.02;;;5.10;;
21743;SDS011;11034;48.556;9.342;2022-10-31T12:50:52;11.13;;;5.93;;
21743;SDS011;11034;48.556;9.342;2022-10-31T12:53:30;11.18;;;4.55;;
21743;SDS011;11034;48.556;9.342;2022-10-31T12:56:12;11.45;;;4.75;;
21743;SDS011;11034;48.556;9.342;2022-10-31T12:58:51;12.10;;;5.00;;
21743;SDS011;11034;48.556;9.342;2022-10-31T13:01:24;10.85;;;4.57;;
21743;SDS011;11034;48.556;9.342;2022-10-31T13:03:58;9.25;;;4.40;;
21743;SDS011;11034;48.556;9.342;2022-10-31T13:06:32;8.93;;;4.50;;
21743;SDS011;11034;48.556;9.342;2022-10-31T13:09:11;12.15;;;5.38;;
21743;SDS011;11034;48.556;9.342;2022-10-31T13:11:44;13.25;;;5.97;;
21743;SDS011;11034;48.556;9.342;2022-10-31T13:14:18;18.52;;;5.82;;
21743;SDS011;11034;48.556;9.342;2022-10-31T13:16:52;13.63;;;6.05;;
21743;SDS011;11034;48.556;9.342;2022-10-31T13:19:23;15.85;;;6.20;;
21743;SDS011;11034;48.556;9.342;2022-10-31T13:21:57;9.98;;;4.00;;
21743;SDS011;11034;48.556;9.342;2022-10-31T13:24:33;13.23;;;3.92;;
21743;SDS011;11034;48.556;9.342;2022-10-31T13:27:09;9.80;;;4.13;;
21743;SDS011;11034;48.556;9.342;2022-10-31T13:29:42;12.38;;;4.68;;
21743;SDS011;11034;48.556;9.342;2022-10-31T13:32:17;9.85;;;4.35;;
21743;SDS011;11034;48.556;9.342;2022-10-31T13:34:47;11.63;;;4.20;;
21743;SDS011;11034;48.556;9.342;2022-10-31T13:37:23;11.82;;;4.03;;
21743;SDS011;11034;48.556;9.342;2022-10-31T13:40:07;15.15;;;4.30;;
21743;SDS011;11034;48.556;9.342;2022-10-31T13:42:48;12.10;;;4.18;;
21743;SDS011;11034;48.556;9.342;2022-10-31T13:45:23;10.05;;;3.83;;
21743;SDS011;11034;48.556;9.342;2022-10-31T13:47:58;11.40;;;4.18;;
21743;SDS011;11034;48.556;9.342;2022-10-31T13:50:28;11.27;;;4.13;;
21743;SDS011;11034;48.556;9.342;2022-10-31T13:53:09;8.25;;;4.28;;
21743;SDS011;11034;48.556;9.342;2022-10-31T13:55:48;12.68;;;4.43;;
21743;SDS011;11034;48.556;9.342;2022-10-31T13:58:22;9.10;;;4.35;;
21743;SDS011;11034;48.556;9.342;2022-10-31T14:00:58;12.45;;;4.25;;
21743;SDS011;11034;48.556;9.342;2022-10-31T14:03:32;14.18;;;4.22;;
21743;SDS011;11034;48.556;9.342;2022-10-31T14:06:22;10.55;;;4.20;;
21743;SDS011;11034;48.556;9.342;2022-10-31T14:09:02;13.38;;;4.43;;
21743;SDS011;11034;48.556;9.342;2022-10-31T14:11:31;10.38;;;4.05;;
21743;SDS011;11034;48.556;9.342;2022-10-31T14:14:02;13.88;;;4.13;;
21743;SDS011;11034;48.556;9.342;2022-10-31T14:16:37;9.77;;;4.70;;
21743;SDS011;11034;48.556;9.342;2022-10-31T14:19:13;12.55;;;4.45;;
21743;SDS011;11034;48.556;9.342;2022-10-31T14:21:44;14.63;;;4.13;;
21743;SDS011;11034;48.556;9.342;2022-10-31T14:24:13;11.88;;;4.30;;
21743;SDS011;11034;48.556;9.342;2022-10-31T14:26:58;12.52;;;4.35;;
21743;SDS011;11034;48.556;9.342;2022-10-31T14:29:28;13.85;;;5.03;;
21743;SDS011;11034;48.556;9.342;2022-10-31T14:32:05;12.80;;;4.80;;
21743;SDS011;11034;48.556;9.342;2022-10-31T14:34:41;13.65;;;5.72;;
21743;SDS011;11034;48.556;9.342;2022-10-31T14:37:19;11.50;;;6.00;;
21743;SDS011;11034;48.556;9.342;2022-10-31T14:43:10;13.93;;;5.70;;
21743;SDS011;11034;48.556;9.342;2022-10-31T14:46:05;9.77;;;4.70;;
21743;SDS011;11034;48.556;9.342;2022-10-31T14:48:49;10.30;;;4.90;;
21743;SDS011;11034;48.556;9.342;2022-10-31T14:51:30;16.15;;;6.07;;
21743;SDS011;11034;48.556;9.342;2022-10-31T14:54:05;11.38;;;5.70;;
21743;SDS011;11034;48.556;9.342;2022-10-31T14:56:39;13.15;;;5.60;;
21743;SDS011;11034;48.556;9.342;2022-10-31T14:59:15;23.20;;;10.45;;
21743;SDS011;11034;48.556;9.342;2022-10-31T15:01:49;18.80;;;9.07;;
21743;SDS011;11034;48.556;9.342;2022-10-31T15:04:23;14.25;;;6.28;;
21743;SDS011;11034;48.556;9.342;2022-10-31T15:06:55;13.48;;;5.80;;
21743;SDS011;11034;48.556;9.342;2022-10-31T15:09:28;12.88;;;5.72;;
21743;SDS011;11034;48.556;9.342;2022-10-31T15:11:58;12.45;;;5.55;;
21743;SDS011;11034;48.556;9.342;2022-10-31T15:14:28;12.15;;;5.35;;
21743;SDS011;11034;48.556;9.342;2022-10-31T15:16:59;15.93;;;5.53;;
21743;SDS011;11034;48.556;9.342;2022-10-31T15:19:30;13.98;;;5.63;;
21743;SDS011;11034;48.556;9.342;2022-10-31T15:22:02;9.85;;;5.63;;
21743;SDS011;11034;48.556;9.342;2022-10-31T15:24:33;11.48;;;6.28;;
21743;SDS011;11034;48.556;9.342;2022-10-31T15:27:03;16.42;;;6.60;;